Accueil
METAR-TAF:

METAR-TAF

Aéroports :

Aéroport international de Kelowna

Kelowna, Colombie-Britannique, Canada

latitude: 49-58N, longitude: 119-23W, altitude: 430 m

Observation

Le bulletin a été fait il y a 46 minutes, à 05:00 UTC
Vent calme
Température 5°C
Humidité 56%
Pression 1024 hPa
Visibilité: 14.5 km
Ciel clair

METAR: CYLW 250500Z AUTO 00000KT 9SM CLR 05/M03 A3024 RMK SLP251

Heure: 22:46 (05:46 UTC)

Prévision

Le bulletin a été fait il y a 2 heures et 28 minutes, à 03:18 UTC
Prévision valable du 25 à 03 UTC au 25 à 13 UTC
Vent 15 kt de nord
Visibilité: 10 km
Quelques nuages à une hauteur de 9000 ft
Evoluant progressivement
du 25 à 05 UTC au 25 à 07 UTC
Vent 7 kt de nord
Evoluant progressivement
du 25 à 07 UTC au 25 à 09 UTC
Vent 3 kt de direction variable

TAF: CYLW 250318Z 2503/2513 35015KT P6SM FEW090 BECMG 2505/2507 36007KT BECMG 2507/2509 VRB03KT RMK FCST BASED ON AUTO OBS. NXT FCST BY 250700Z

Observations et prévisions météorologiques de plus de 4000 aéroports (messages METAR et TAF).

Les stations disponibles sont représentées par des disques jaunes et rouges sur la carte.

Passer la souris dessus pour voir le nom de la station.

Cliquer dessus pour voir les observations et prévisions météorologiques.

Pour changer de carte: cliquez sur les boutons verts avec une croix noire pour zoomer, sur le bouton vert avec un tiret pour effectuer un zoom arrière, ou sur les flèches vertes pour les cartes adjacentes.


METAR-TAF: